createdAt,value
2022-08-09T00:00:00.761Z,17.20
2022-08-09T00:02:31.312Z,17.08
2022-08-09T00:05:03.064Z,17.04
2022-08-09T00:07:45.253Z,17.06
2022-08-09T00:10:17.839Z,17.07
2022-08-09T00:12:52.392Z,17.02
2022-08-09T00:15:19.689Z,17.10
2022-08-09T00:18:10.720Z,17.17
2022-08-09T00:20:41.466Z,16.79
2022-08-09T00:23:58.022Z,16.75
2022-08-09T00:26:01.000Z,16.71
2022-08-09T00:28:31.691Z,16.46
2022-08-09T00:31:01.227Z,16.50
2022-08-09T00:33:51.274Z,16.77
2022-08-09T00:36:18.808Z,16.81
2022-08-09T00:38:46.037Z,16.85
2022-08-09T00:44:10.025Z,17.05
2022-08-09T00:44:13.882Z,16.79
2022-08-09T00:46:57.320Z,17.04
2022-08-09T00:49:28.752Z,17.07
2022-08-09T00:51:57.871Z,17.04
2022-08-09T00:54:35.355Z,17.22
2022-08-09T00:57:10.711Z,17.23
2022-08-09T00:59:40.928Z,17.13
2022-08-09T01:02:08.850Z,16.95
2022-08-09T01:04:44.102Z,17.03
2022-08-09T01:07:18.461Z,16.94
2022-08-09T01:10:18.577Z,16.91
2022-08-09T01:12:52.684Z,16.80
2022-08-09T01:15:21.758Z,16.74
2022-08-09T01:18:14.291Z,16.76
2022-08-09T01:21:00.475Z,16.73
2022-08-09T01:24:01.201Z,16.61
2022-08-09T01:26:53.135Z,16.51
2022-08-09T01:29:56.326Z,16.38
2022-08-09T01:32:31.066Z,16.54
2022-08-09T01:35:07.168Z,16.35
2022-08-09T01:38:08.190Z,16.35
2022-08-09T01:40:42.117Z,16.13
2022-08-09T01:43:08.967Z,16.07
2022-08-09T01:45:44.644Z,16.16
2022-08-09T01:48:15.591Z,16.19
2022-08-09T01:50:48.332Z,16.05
2022-08-09T01:53:19.141Z,16.09
2022-08-09T01:55:47.348Z,16.12
2022-08-09T01:58:15.082Z,16.05
2022-08-09T02:00:46.244Z,15.97
2022-08-09T02:03:17.061Z,16.15
2022-08-09T02:06:03.354Z,16.01
2022-08-09T02:08:39.998Z,15.99
2022-08-09T02:11:18.836Z,15.90
2022-08-09T02:13:55.415Z,15.80
2022-08-09T02:16:59.948Z,15.83
2022-08-09T02:19:22.470Z,15.69
2022-08-09T02:21:55.573Z,15.78
2022-08-09T02:24:26.467Z,15.83
2022-08-09T02:26:55.605Z,15.62
2022-08-09T02:29:27.737Z,15.62
2022-08-09T02:32:01.260Z,15.59
2022-08-09T02:34:40.460Z,15.62
2022-08-09T02:37:12.394Z,15.64
2022-08-09T02:39:44.456Z,15.59
2022-08-09T02:42:25.742Z,15.68
2022-08-09T02:45:07.834Z,15.52
2022-08-09T02:47:58.080Z,15.49
2022-08-09T02:50:25.336Z,15.23
2022-08-09T02:53:09.121Z,15.36
2022-08-09T02:55:57.335Z,15.44
2022-08-09T02:58:32.408Z,15.41
2022-08-09T03:01:04.020Z,15.34
2022-08-09T03:04:13.028Z,15.27
2022-08-09T03:06:21.649Z,15.43
2022-08-09T03:08:49.693Z,15.40
2022-08-09T03:11:29.742Z,15.50
2022-08-09T03:14:07.539Z,15.33
2022-08-09T03:16:41.808Z,15.14
2022-08-09T03:19:14.332Z,15.16
2022-08-09T03:21:59.456Z,15.33
2022-08-09T03:24:42.645Z,15.36
2022-08-09T03:27:12.540Z,15.08
2022-08-09T03:29:58.017Z,15.36
2022-08-09T03:32:29.802Z,15.20
2022-08-09T03:34:56.844Z,14.98
2022-08-09T03:37:54.378Z,14.89
2022-08-09T03:40:13.219Z,14.84
2022-08-09T03:42:40.129Z,14.88
2022-08-09T03:45:10.478Z,14.94
2022-08-09T03:47:40.050Z,15.11
2022-08-09T03:50:10.222Z,15.03
2022-08-09T03:52:38.809Z,14.74
2022-08-09T03:55:07.716Z,14.93
2022-08-09T03:57:53.838Z,15.03
2022-08-09T04:00:25.394Z,14.98
2022-08-09T04:02:54.067Z,14.77
2022-08-09T04:05:26.755Z,14.82
2022-08-09T04:07:56.889Z,14.82
2022-08-09T04:10:28.917Z,14.74
2022-08-09T04:12:56.885Z,14.74
2022-08-09T04:15:42.552Z,14.81
2022-08-09T04:18:17.785Z,14.71
2022-08-09T04:20:46.084Z,14.69
2022-08-09T04:23:17.013Z,14.68
2022-08-09T04:25:49.871Z,14.68
2022-08-09T04:28:30.597Z,14.70
2022-08-09T04:31:00.782Z,14.88
2022-08-09T04:33:34.250Z,14.80
2022-08-09T04:36:24.271Z,14.88
2022-08-09T04:38:51.012Z,14.74
2022-08-09T04:41:18.728Z,14.88
2022-08-09T04:43:53.826Z,14.79
2022-08-09T04:46:37.344Z,14.76
2022-08-09T04:49:30.288Z,14.79
2022-08-09T04:52:05.476Z,14.86
2022-08-09T04:54:33.987Z,14.86
2022-08-09T04:57:00.504Z,14.86
2022-08-09T04:59:30.350Z,14.85
2022-08-09T05:01:56.759Z,14.80
2022-08-09T05:04:23.182Z,14.76
2022-08-09T05:06:57.313Z,14.76
2022-08-09T05:09:24.475Z,14.80
2022-08-09T05:11:51.501Z,14.95
2022-08-09T05:14:18.415Z,15.26
2022-08-09T05:16:59.355Z,15.41
2022-08-09T05:19:44.456Z,15.36
2022-08-09T05:22:33.374Z,15.57
2022-08-09T05:25:01.027Z,15.55
2022-08-09T05:27:29.088Z,15.52
2022-08-09T05:29:57.723Z,15.61
2022-08-09T05:32:25.773Z,15.71
2022-08-09T05:34:52.228Z,15.60
2022-08-09T05:37:18.672Z,15.73
2022-08-09T05:39:45.153Z,15.77
2022-08-09T05:42:17.509Z,15.68
2022-08-09T05:44:50.437Z,15.68
2022-08-09T05:47:17.557Z,15.95
2022-08-09T05:50:23.499Z,15.89
2022-08-09T05:52:30.813Z,16.05
2022-08-09T05:55:03.006Z,16.21
2022-08-09T05:57:50.415Z,16.27
2022-08-09T06:00:22.807Z,16.37
2022-08-09T06:02:54.722Z,16.41
2022-08-09T06:05:49.951Z,16.46
2022-08-09T06:08:11.016Z,16.54
2022-08-09T06:10:37.865Z,16.70
2022-08-09T06:13:12.127Z,16.83
2022-08-09T06:15:44.681Z,16.88
2022-08-09T06:18:13.587Z,16.89
2022-08-09T06:20:42.567Z,16.95
2022-08-09T06:23:12.016Z,17.07
2022-08-09T06:25:42.071Z,17.11
2022-08-09T06:28:10.129Z,17.15
2022-08-09T06:30:40.371Z,17.20
2022-08-09T06:33:30.374Z,17.24
2022-08-09T06:35:58.232Z,17.43
2022-08-09T06:38:37.129Z,17.59
2022-08-09T06:41:04.775Z,17.63
2022-08-09T06:43:36.316Z,17.70
2022-08-09T06:46:10.825Z,17.76
2022-08-09T06:48:42.977Z,17.87
2022-08-09T06:51:10.961Z,17.76
2022-08-09T06:53:39.043Z,17.94
2022-08-09T06:56:09.621Z,18.03
2022-08-09T07:00:47.654Z,17.95
2022-08-09T07:01:35.756Z,18.08
2022-08-09T07:04:11.003Z,18.06
2022-08-09T07:06:46.826Z,18.34
2022-08-09T07:09:54.165Z,18.37
2022-08-09T07:12:06.152Z,18.48
2022-08-09T07:14:32.565Z,18.62
2022-08-09T07:16:58.999Z,18.72
2022-08-09T07:19:25.471Z,18.71
2022-08-09T07:21:57.767Z,18.77
2022-08-09T07:24:32.446Z,18.93
2022-08-09T07:27:23.852Z,18.87
2022-08-09T07:29:56.824Z,19.05
2022-08-09T07:32:32.402Z,19.19
2022-08-09T07:35:11.875Z,19.12
2022-08-09T07:37:43.351Z,19.22
2022-08-09T07:40:17.692Z,19.34
2022-08-09T07:43:03.371Z,19.50
2022-08-09T07:45:41.140Z,19.41
2022-08-09T07:48:22.421Z,19.29
2022-08-09T07:51:09.687Z,19.58
2022-08-09T07:54:05.337Z,19.80
2022-08-09T07:56:31.252Z,19.80
2022-08-09T07:58:59.491Z,20.02
2022-08-09T08:01:33.205Z,20.10
2022-08-09T08:04:03.799Z,20.40
2022-08-09T08:06:36.656Z,20.29
2022-08-09T08:09:35.258Z,20.48
2022-08-09T08:12:24.707Z,20.53
2022-08-09T08:14:45.881Z,20.61
2022-08-09T08:17:24.716Z,20.69
2022-08-09T08:19:58.735Z,20.76
2022-08-09T08:22:25.767Z,20.88
2022-08-09T08:24:57.918Z,20.98
2022-08-09T08:27:25.331Z,21.26
2022-08-09T08:29:53.722Z,21.19
2022-08-09T08:32:34.608Z,21.43
2022-08-09T08:35:07.912Z,21.25
2022-08-09T08:37:41.155Z,21.51
2022-08-09T08:40:21.997Z,21.80
2022-08-09T08:42:53.083Z,21.96
2022-08-09T08:45:36.762Z,21.98
2022-08-09T08:48:05.651Z,21.86
2022-08-09T08:50:32.212Z,22.07
2022-08-09T08:53:00.529Z,22.22
2022-08-09T08:55:28.072Z,22.33
2022-08-09T08:57:57.093Z,22.47
2022-08-09T09:00:27.712Z,22.53
2022-08-09T09:03:08.175Z,22.69
2022-08-09T09:05:59.617Z,22.74
2022-08-09T09:08:30.198Z,22.88
2022-08-09T09:11:02.669Z,23.10
2022-08-09T09:13:42.160Z,23.15
2022-08-09T09:16:17.660Z,23.25
2022-08-09T09:19:21.518Z,23.45
2022-08-09T09:22:04.174Z,23.41
2022-08-09T09:24:43.353Z,23.57
2022-08-09T09:28:02.804Z,23.34
2022-08-09T09:30:14.237Z,23.59
2022-08-09T09:33:16.116Z,23.79
2022-08-09T09:36:19.837Z,24.09
2022-08-09T09:38:48.903Z,24.21
2022-08-09T09:41:26.049Z,24.47
2022-08-09T09:44:11.621Z,24.66
2022-08-09T09:46:46.199Z,25.07
2022-08-09T09:49:31.853Z,25.02
2022-08-09T09:52:33.281Z,25.21
2022-08-09T09:55:02.658Z,25.35
2022-08-09T09:58:03.080Z,25.72
2022-08-09T10:00:33.779Z,25.31
2022-08-09T10:03:09.195Z,24.79
2022-08-09T10:06:01.056Z,25.37
2022-08-09T10:08:30.897Z,25.73
2022-08-09T10:10:58.515Z,25.84
2022-08-09T10:13:43.484Z,26.04
2022-08-09T10:16:57.077Z,26.19
2022-08-09T10:19:00.773Z,26.29
2022-08-09T10:21:29.040Z,26.25
2022-08-09T10:23:56.605Z,26.39
2022-08-09T10:26:24.619Z,26.48
2022-08-09T10:29:21.385Z,26.87
2022-08-09T10:32:27.895Z,26.64
2022-08-09T10:34:34.025Z,26.83
2022-08-09T10:37:02.546Z,27.10
2022-08-09T10:39:29.858Z,27.19
2022-08-09T10:42:01.922Z,27.16
2022-08-09T10:44:30.682Z,26.46
2022-08-09T10:48:13.463Z,27.11
2022-08-09T10:50:52.077Z,27.24
2022-08-09T10:53:54.226Z,27.72
2022-08-09T10:56:29.345Z,27.70
2022-08-09T10:58:58.390Z,27.67
2022-08-09T11:03:16.281Z,27.67
2022-08-09T11:04:30.489Z,27.51
2022-08-09T11:06:59.571Z,27.79
2022-08-09T11:09:38.942Z,27.99
2022-08-09T11:12:30.319Z,27.77
2022-08-09T11:15:24.019Z,28.01
2022-08-09T11:18:02.604Z,28.22
2022-08-09T11:20:49.907Z,27.71
2022-08-09T11:23:16.884Z,27.65
2022-08-09T11:25:50.749Z,28.01
2022-08-09T11:28:33.834Z,28.30
2022-08-09T11:31:03.802Z,28.12
2022-08-09T11:33:46.229Z,28.22
2022-08-09T11:36:14.737Z,28.53
2022-08-09T11:39:02.095Z,28.86
2022-08-09T11:41:38.200Z,28.90
2022-08-09T11:44:07.401Z,28.98
2022-08-09T11:46:57.450Z,28.62
2022-08-09T11:50:52.352Z,28.88
2022-08-09T11:53:16.502Z,29.41
2022-08-09T11:55:53.175Z,29.32
2022-08-09T11:58:32.502Z,29.99
2022-08-09T12:01:09.013Z,30.41
2022-08-09T12:03:59.075Z,29.76
2022-08-09T12:06:32.513Z,29.62
2022-08-09T12:09:05.823Z,30.14
2022-08-09T12:12:02.475Z,30.80
2022-08-09T12:14:40.862Z,31.26
2022-08-09T12:17:28.221Z,31.54
2022-08-09T12:20:19.822Z,31.26
2022-08-09T12:22:52.633Z,31.66
2022-08-09T12:25:37.262Z,31.90
2022-08-09T12:29:13.813Z,32.66
2022-08-09T12:31:00.262Z,32.67
2022-08-09T12:33:51.450Z,33.14
2022-08-09T12:36:27.365Z,32.42
2022-08-09T12:38:59.718Z,32.01
2022-08-09T12:41:33.688Z,33.18
2022-08-09T12:44:07.285Z,33.16
2022-08-09T12:46:36.294Z,33.55
2022-08-09T12:49:03.757Z,33.67
2022-08-09T12:51:59.850Z,33.26
2022-08-09T12:54:17.743Z,33.98
2022-08-09T12:56:51.279Z,34.57
2022-08-09T12:59:22.794Z,35.02
2022-08-09T13:02:05.125Z,33.23
2022-08-09T13:04:38.187Z,33.09
2022-08-09T13:07:13.977Z,33.38
2022-08-09T13:09:43.364Z,34.46
2022-08-09T13:12:19.707Z,34.71
2022-08-09T13:14:53.790Z,34.74
2022-08-09T13:17:44.123Z,35.75
2022-08-09T13:20:13.303Z,36.08
2022-08-09T13:23:05.706Z,34.92
2022-08-09T13:25:54.416Z,35.44
2022-08-09T13:28:33.837Z,35.74
2022-08-09T13:32:17.560Z,36.64
2022-08-09T13:33:54.019Z,35.64
2022-08-09T13:36:39.065Z,36.32
2022-08-09T13:41:20.823Z,36.04
2022-08-09T13:42:12.528Z,35.97
2022-08-09T13:44:40.384Z,35.93
2022-08-09T13:47:17.834Z,35.97
2022-08-09T13:50:01.207Z,35.74
2022-08-09T13:52:30.073Z,35.35
2022-08-09T13:54:58.987Z,35.73
2022-08-09T13:57:35.417Z,36.10
2022-08-09T14:00:04.654Z,35.66
2022-08-09T14:02:31.069Z,36.68
2022-08-09T14:05:02.739Z,37.61
2022-08-09T14:07:41.940Z,35.69
2022-08-09T14:10:17.584Z,34.97
2022-08-09T14:12:58.007Z,33.95
2022-08-09T14:16:08.971Z,34.10
2022-08-09T14:18:19.964Z,34.70
2022-08-09T14:20:57.670Z,35.11
2022-08-09T14:23:40.452Z,35.23
2022-08-09T14:26:11.092Z,36.50
2022-08-09T14:28:37.760Z,37.13
2022-08-09T14:31:04.453Z,37.14
2022-08-09T14:33:30.884Z,37.25
2022-08-09T14:36:20.896Z,36.58
2022-08-09T14:38:52.818Z,36.29
2022-08-09T14:41:39.508Z,36.03
2022-08-09T14:44:06.619Z,35.99
2022-08-09T14:46:46.363Z,34.84
2022-08-09T14:49:23.585Z,34.49
2022-08-09T14:51:50.561Z,33.92
2022-08-09T14:54:28.217Z,32.78
2022-08-09T14:56:58.207Z,32.74
2022-08-09T14:59:27.141Z,32.45
2022-08-09T15:01:53.922Z,32.20
2022-08-09T15:04:20.525Z,31.81
2022-08-09T15:06:50.446Z,31.70
2022-08-09T15:10:03.602Z,31.05
2022-08-09T15:12:05.450Z,31.53
2022-08-09T15:14:35.048Z,30.74
2022-08-09T15:17:07.555Z,30.66
2022-08-09T15:19:36.469Z,30.82
2022-08-09T15:22:03.671Z,30.69
2022-08-09T15:24:30.171Z,30.18
2022-08-09T15:26:57.627Z,29.67
2022-08-09T15:30:58.199Z,30.34
2022-08-09T15:32:28.876Z,30.38
2022-08-09T15:34:59.656Z,30.55
2022-08-09T15:37:56.631Z,29.99
2022-08-09T15:40:25.347Z,30.31
2022-08-09T15:42:58.371Z,30.38
2022-08-09T15:45:29.685Z,30.32
2022-08-09T15:48:05.521Z,30.16
2022-08-09T15:50:44.001Z,30.36
2022-08-09T15:53:17.959Z,30.12
2022-08-09T15:56:21.058Z,29.96
2022-08-09T15:58:44.023Z,30.00
2022-08-09T16:01:12.944Z,30.11
2022-08-09T16:03:41.795Z,29.36
2022-08-09T16:06:29.467Z,29.67
2022-08-09T16:08:55.959Z,29.30
2022-08-09T16:11:22.392Z,29.33
2022-08-09T16:14:03.759Z,29.32
2022-08-09T16:16:33.443Z,29.78
2022-08-09T16:19:01.331Z,29.79
2022-08-09T16:21:31.809Z,29.85
2022-08-09T16:24:02.625Z,29.67
2022-08-09T16:26:34.507Z,29.94
2022-08-09T16:29:11.099Z,29.91
2022-08-09T16:32:18.924Z,29.51
2022-08-09T16:34:27.087Z,29.59
2022-08-09T16:36:55.971Z,29.38
2022-08-09T16:39:25.603Z,29.36
2022-08-09T16:42:02.842Z,29.24
2022-08-09T16:44:31.717Z,28.93
2022-08-09T16:47:03.940Z,29.18
2022-08-09T16:50:32.396Z,28.95
2022-08-09T16:52:31.743Z,28.82
2022-08-09T16:54:58.304Z,28.94
2022-08-09T16:57:24.705Z,28.89
2022-08-09T16:59:57.633Z,29.26
2022-08-09T17:02:25.572Z,28.76
2022-08-09T17:04:52.102Z,28.66
2022-08-09T17:08:43.015Z,28.27
2022-08-09T17:10:07.311Z,28.19
2022-08-09T17:12:35.814Z,27.79
2022-08-09T17:15:02.473Z,27.73
2022-08-09T17:17:50.746Z,27.84
2022-08-09T17:20:35.131Z,27.85
2022-08-09T17:23:03.348Z,27.95
2022-08-09T17:25:31.759Z,27.75
2022-08-09T17:28:04.681Z,27.34
2022-08-09T17:30:31.624Z,27.21
2022-08-09T17:33:04.673Z,27.29
2022-08-09T17:35:33.876Z,27.76
2022-08-09T17:38:14.337Z,27.58
2022-08-09T17:40:47.362Z,27.57
2022-08-09T17:43:34.022Z,27.57
2022-08-09T17:46:03.518Z,27.49
2022-08-09T17:48:38.925Z,27.39
2022-08-09T17:51:18.614Z,27.43
2022-08-09T17:53:52.876Z,27.40
2022-08-09T17:56:28.795Z,27.30
2022-08-09T17:58:58.113Z,27.06
2022-08-09T18:01:24.836Z,27.12
2022-08-09T18:03:54.263Z,27.14
2022-08-09T18:06:30.947Z,27.01
2022-08-09T18:08:58.213Z,26.98
2022-08-09T18:11:24.685Z,26.80
2022-08-09T18:13:57.706Z,26.88
2022-08-09T18:16:30.764Z,26.52
2022-08-09T18:19:04.214Z,26.57
2022-08-09T18:21:50.350Z,26.54
2022-08-09T18:24:19.340Z,26.46
2022-08-09T18:26:46.362Z,26.47
2022-08-09T18:30:40.546Z,26.31
2022-08-09T18:32:02.863Z,26.25
2022-08-09T18:34:31.353Z,26.14
2022-08-09T18:36:58.204Z,26.15
2022-08-09T18:39:25.529Z,25.99
2022-08-09T18:41:53.917Z,25.97
2022-08-09T18:44:25.688Z,25.89
2022-08-09T18:47:08.421Z,25.76
2022-08-09T18:49:41.455Z,25.60
2022-08-09T18:52:10.271Z,25.53
2022-08-09T18:54:38.617Z,25.50
2022-08-09T18:57:06.769Z,25.39
2022-08-09T18:59:37.409Z,25.31
2022-08-09T19:02:15.126Z,25.12
2022-08-09T19:04:41.589Z,24.87
2022-08-09T19:07:14.319Z,25.04
2022-08-09T19:10:14.279Z,24.80
2022-08-09T19:12:32.267Z,24.76
2022-08-09T19:15:04.441Z,24.41
2022-08-09T19:17:47.581Z,24.27
2022-08-09T19:20:19.985Z,23.97
2022-08-09T19:22:53.928Z,23.77
2022-08-09T19:25:42.647Z,23.76
2022-08-09T19:28:08.831Z,23.68
2022-08-09T19:30:44.426Z,23.69
2022-08-09T19:33:19.504Z,23.79
2022-08-09T19:35:57.055Z,23.90
2022-08-09T19:38:25.239Z,23.93
2022-08-09T19:40:51.725Z,23.95
2022-08-09T19:43:57.912Z,23.83
2022-08-09T19:46:08.384Z,23.70
2022-08-09T19:49:00.694Z,23.55
2022-08-09T19:51:27.708Z,23.37
2022-08-09T19:53:58.239Z,23.14
2022-08-09T19:56:29.108Z,22.99
2022-08-09T19:59:40.068Z,22.86
2022-08-09T20:01:53.097Z,22.69
2022-08-09T20:04:36.662Z,22.74
2022-08-09T20:07:06.208Z,22.55
2022-08-09T20:09:44.630Z,22.41
2022-08-09T20:12:30.268Z,22.52
2022-08-09T20:15:01.501Z,22.65
2022-08-09T20:17:48.471Z,22.71
2022-08-09T20:20:17.625Z,22.75
2022-08-09T20:22:46.427Z,22.79
2022-08-09T20:25:13.125Z,22.46
2022-08-09T20:27:49.129Z,22.50
2022-08-09T20:30:17.946Z,22.35
2022-08-09T20:32:48.740Z,22.21
2022-08-09T20:35:19.942Z,22.05
2022-08-09T20:38:21.171Z,21.86
2022-08-09T20:40:32.968Z,21.92
2022-08-09T20:43:18.898Z,21.96
2022-08-09T20:46:01.658Z,21.84
2022-08-09T20:48:32.356Z,21.71
2022-08-09T20:51:00.289Z,21.82
2022-08-09T20:53:37.383Z,21.74
2022-08-09T20:56:20.410Z,21.55
2022-08-09T20:58:54.214Z,21.52
2022-08-09T21:01:34.624Z,21.48
2022-08-09T21:04:08.145Z,21.29
2022-08-09T21:06:53.648Z,21.34
2022-08-09T21:09:25.069Z,21.33
2022-08-09T21:14:40.652Z,20.97
2022-08-09T21:18:11.989Z,20.91
2022-08-09T21:20:04.497Z,20.71
2022-08-09T21:22:42.428Z,20.67
2022-08-09T21:25:38.003Z,20.60
2022-08-09T21:28:04.785Z,20.72
2022-08-09T21:30:33.915Z,20.79
2022-08-09T21:33:03.569Z,20.81
2022-08-09T21:35:39.522Z,20.60
2022-08-09T21:38:08.789Z,20.65
2022-08-09T21:40:36.677Z,20.51
2022-08-09T21:43:06.052Z,20.46
2022-08-09T21:45:33.416Z,20.35
2022-08-09T21:48:06.728Z,20.29
2022-08-09T21:50:39.001Z,20.35
2022-08-09T21:53:19.902Z,20.33
2022-08-09T21:55:56.378Z,20.35
2022-08-09T21:58:31.073Z,20.31
2022-08-09T22:00:58.063Z,20.35
2022-08-09T22:03:25.868Z,20.32
2022-08-09T22:05:54.234Z,20.24
2022-08-09T22:08:22.951Z,20.14
2022-08-09T22:11:00.326Z,20.07
2022-08-09T22:13:38.384Z,20.00
2022-08-09T22:16:09.342Z,20.01
2022-08-09T22:18:37.849Z,20.11
2022-08-09T22:21:09.963Z,19.93
2022-08-09T22:24:00.050Z,19.74
2022-08-09T22:26:35.402Z,19.61
2022-08-09T22:29:09.256Z,19.70
2022-08-09T22:31:37.177Z,19.69
2022-08-09T22:34:09.659Z,19.64
2022-08-09T22:36:46.027Z,19.34
2022-08-09T22:39:20.755Z,19.26
2022-08-09T22:42:03.271Z,19.06
2022-08-09T22:44:33.107Z,19.02
2022-08-09T22:48:13.131Z,18.92
2022-08-09T22:49:47.605Z,18.84
2022-08-09T22:52:18.769Z,18.85
2022-08-09T22:54:47.042Z,18.83
2022-08-09T22:57:13.848Z,18.72
2022-08-09T22:59:55.237Z,18.62
2022-08-09T23:02:25.057Z,18.49
2022-08-09T23:04:53.607Z,18.41
2022-08-09T23:08:22.247Z,18.58
2022-08-09T23:10:27.085Z,18.74
2022-08-09T23:12:53.518Z,18.67
2022-08-09T23:15:20.048Z,18.73
2022-08-09T23:17:46.474Z,18.66
2022-08-09T23:20:12.883Z,18.60
2022-08-09T23:22:39.345Z,18.53
2022-08-09T23:25:06.696Z,18.45
2022-08-09T23:27:33.821Z,18.34
2022-08-09T23:30:00.364Z,18.48
2022-08-09T23:32:26.795Z,18.38
2022-08-09T23:34:53.363Z,18.35
2022-08-09T23:37:22.679Z,18.24
2022-08-09T23:39:51.828Z,18.22
2022-08-09T23:42:18.244Z,18.18
2022-08-09T23:44:44.899Z,18.13
2022-08-09T23:47:11.309Z,18.12
2022-08-09T23:49:37.717Z,17.80
2022-08-09T23:52:04.626Z,17.75
2022-08-09T23:54:31.055Z,17.90
2022-08-09T23:56:58.227Z,17.73
2022-08-09T23:59:25.688Z,17.91
